sensor_id;sensor_type;location;lat;lon;timestamp;pressure;altitude;pressure_sealevel;temperature;humidity
29315;BME280;16320;53.954;9.506;2023-01-19T00:25:20;99392.88;;;1.10;100.00
29315;BME280;16320;53.954;9.506;2023-01-19T00:38:31;99384.50;;;1.28;100.00
29315;BME280;16320;53.954;9.506;2023-01-19T00:47:25;99379.03;;;1.36;100.00
29315;BME280;16320;53.954;9.506;2023-01-19T00:54:21;99369.53;;;1.37;100.00
29315;BME280;16320;53.954;9.506;2023-01-19T01:01:47;99361.63;;;1.41;100.00
29315;BME280;16320;53.954;9.506;2023-01-19T01:06:34;99371.97;;;1.41;100.00
29315;BME280;16320;53.954;9.506;2023-01-19T01:19:28;99373.41;;;1.49;100.00
29315;BME280;16320;53.954;9.506;2023-01-19T01:27:55;99367.16;;;1.54;100.00
29315;BME280;16320;53.954;9.506;2023-01-19T01:32:32;99358.63;;;1.52;100.00
29315;BME280;16320;53.954;9.506;2023-01-19T01:36:29;99352.56;;;1.53;100.00
29315;BME280;16320;53.954;9.506;2023-01-19T06:20:14;99468.28;;;1.98;100.00
29315;BME280;16320;53.954;9.506;2023-01-19T12:02:31;100052.38;;;2.71;100.00
29315;BME280;16320;53.954;9.506;2023-01-19T16:18:03;100086.94;;;2.42;100.00
29315;BME280;16320;53.954;9.506;2023-01-19T16:21:42;100091.25;;;2.42;100.00
29315;BME280;16320;53.954;9.506;2023-01-19T16:24:58;100082.59;;;2.43;100.00
29315;BME280;16320;53.954;9.506;2023-01-19T16:28:05;100084.56;;;2.34;100.00
29315;BME280;16320;53.954;9.506;2023-01-19T16:31:44;100087.31;;;2.28;100.00
29315;BME280;16320;53.954;9.506;2023-01-19T16:34:54;100089.13;;;2.25;100.00
29315;BME280;16320;53.954;9.506;2023-01-19T16:38:02;100095.19;;;2.24;100.00
29315;BME280;16320;53.954;9.506;2023-01-19T16:41:09;100093.59;;;2.19;100.00
29315;BME280;16320;53.954;9.506;2023-01-19T16:44:16;100097.19;;;2.14;100.00
29315;BME280;16320;53.954;9.506;2023-01-19T16:47:21;100094.59;;;2.14;100.00
29315;BME280;16320;53.954;9.506;2023-01-19T16:50:26;100098.16;;;2.11;100.00
29315;BME280;16320;53.954;9.506;2023-01-19T16:58:25;100109.66;;;1.99;100.00
29315;BME280;16320;53.954;9.506;2023-01-19T17:01:34;100113.06;;;2.01;100.00
29315;BME280;16320;53.954;9.506;2023-01-19T17:05:34;100112.25;;;1.99;100.00
29315;BME280;16320;53.954;9.506;2023-01-19T17:08:51;100118.16;;;2.05;100.00
29315;BME280;16320;53.954;9.506;2023-01-19T17:21:30;100142.72;;;1.90;100.00
29315;BME280;16320;53.954;9.506;2023-01-19T17:31:24;100146.47;;;1.78;100.00
29315;BME280;16320;53.954;9.506;2023-01-19T17:40:05;100161.22;;;1.74;100.00
29315;BME280;16320;53.954;9.506;2023-01-19T17:43:36;100157.91;;;1.69;100.00
29315;BME280;16320;53.954;9.506;2023-01-19T17:47:20;100159.53;;;1.73;100.00
29315;BME280;16320;53.954;9.506;2023-01-19T18:03:54;100160.28;;;1.77;100.00
29315;BME280;16320;53.954;9.506;2023-01-19T18:07:05;100166.34;;;1.77;100.00
29315;BME280;16320;53.954;9.506;2023-01-19T18:10:26;100165.25;;;1.86;100.00
29315;BME280;16320;53.954;9.506;2023-01-19T18:14:09;100173.81;;;1.88;100.00
29315;BME280;16320;53.954;9.506;2023-01-19T18:17:43;100165.19;;;1.89;100.00
29315;BME280;16320;53.954;9.506;2023-01-19T18:22:07;100167.91;;;1.83;100.00
29315;BME280;16320;53.954;9.506;2023-01-19T18:26:09;100173.09;;;1.83;100.00
29315;BME280;16320;53.954;9.506;2023-01-19T18:29:36;100172.28;;;1.81;100.00
29315;BME280;16320;53.954;9.506;2023-01-19T18:33:30;100177.59;;;1.75;100.00
29315;BME280;16320;53.954;9.506;2023-01-19T18:37:43;100178.44;;;1.75;100.00
29315;BME280;16320;53.954;9.506;2023-01-19T19:01:52;100200.31;;;1.63;100.00
29315;BME280;16320;53.954;9.506;2023-01-19T19:15:31;100196.97;;;1.58;100.00
29315;BME280;16320;53.954;9.506;2023-01-19T19:18:37;100201.25;;;1.61;100.00
29315;BME280;16320;53.954;9.506;2023-01-19T19:21:45;100206.31;;;1.64;100.00
29315;BME280;16320;53.954;9.506;2023-01-19T19:24:56;100211.53;;;1.62;100.00
29315;BME280;16320;53.954;9.506;2023-01-19T19:28:09;100211.41;;;1.69;100.00
29315;BME280;16320;53.954;9.506;2023-01-19T19:31:17;100203.72;;;1.65;100.00
29315;BME280;16320;53.954;9.506;2023-01-19T19:34:24;100217.56;;;1.64;100.00
29315;BME280;16320;53.954;9.506;2023-01-19T19:37:29;100217.56;;;1.64;100.00
29315;BME280;16320;53.954;9.506;2023-01-19T19:40:36;100222.50;;;1.74;100.00
29315;BME280;16320;53.954;9.506;2023-01-19T19:43:58;100227.69;;;1.74;100.00
29315;BME280;16320;53.954;9.506;2023-01-19T19:47:09;100222.66;;;1.68;100.00
29315;BME280;16320;53.954;9.506;2023-01-19T19:50:14;100230.38;;;1.71;100.00
29315;BME280;16320;53.954;9.506;2023-01-19T19:53:51;100231.25;;;1.70;100.00
29315;BME280;16320;53.954;9.506;2023-01-19T19:57:52;100229.53;;;1.69;100.00
29315;BME280;16320;53.954;9.506;2023-01-19T20:01:19;100237.53;;;1.59;100.00
29315;BME280;16320;53.954;9.506;2023-01-19T20:05:05;100239.22;;;1.60;100.00
29315;BME280;16320;53.954;9.506;2023-01-19T20:08:43;100253.16;;;1.55;100.00
29315;BME280;16320;53.954;9.506;2023-01-19T20:12:03;100262.50;;;1.60;100.00
29315;BME280;16320;53.954;9.506;2023-01-19T20:15:09;100268.47;;;1.64;100.00
29315;BME280;16320;53.954;9.506;2023-01-19T20:18:14;100275.31;;;1.67;100.00
29315;BME280;16320;53.954;9.506;2023-01-19T20:21:29;100283.16;;;1.63;100.00
29315;BME280;16320;53.954;9.506;2023-01-19T20:24:34;100282.41;;;1.58;100.00
29315;BME280;16320;53.954;9.506;2023-01-19T20:27:39;100293.69;;;1.54;100.00
29315;BME280;16320;53.954;9.506;2023-01-19T20:31:11;100302.31;;;1.56;100.00
29315;BME280;16320;53.954;9.506;2023-01-19T20:34:30;100304.97;;;1.52;100.00
29315;BME280;16320;53.954;9.506;2023-01-19T20:37:38;100305.88;;;1.49;100.00
29315;BME280;16320;53.954;9.506;2023-01-19T20:40:43;100311.19;;;1.43;100.00
29315;BME280;16320;53.954;9.506;2023-01-19T20:43:50;100323.25;;;1.44;100.00
29315;BME280;16320;53.954;9.506;2023-01-19T20:46:58;100324.19;;;1.41;100.00
29315;BME280;16320;53.954;9.506;2023-01-19T20:50:04;100326.72;;;1.43;100.00
29315;BME280;16320;53.954;9.506;2023-01-19T20:53:16;100325.03;;;1.42;100.00
29315;BME280;16320;53.954;9.506;2023-01-19T20:57:20;100336.25;;;1.41;100.00
29315;BME280;16320;53.954;9.506;2023-01-19T21:00:35;100337.84;;;1.48;100.00
29315;BME280;16320;53.954;9.506;2023-01-19T21:03:49;100349.06;;;1.47;100.00
29315;BME280;16320;53.954;9.506;2023-01-19T21:11:07;100355.75;;;1.57;100.00
29315;BME280;16320;53.954;9.506;2023-01-19T21:14:22;100359.09;;;1.62;100.00
29315;BME280;16320;53.954;9.506;2023-01-19T21:17:41;100366.06;;;1.60;100.00
29315;BME280;16320;53.954;9.506;2023-01-19T21:20:54;100377.22;;;1.62;100.00
29315;BME280;16320;53.954;9.506;2023-01-19T21:24:05;100386.69;;;1.63;100.00
29315;BME280;16320;53.954;9.506;2023-01-19T21:27:19;100394.50;;;1.62;100.00
29315;BME280;16320;53.954;9.506;2023-01-19T21:30:36;100399.59;;;1.67;100.00
29315;BME280;16320;53.954;9.506;2023-01-19T21:42:48;100404.88;;;1.60;100.00
29315;BME280;16320;53.954;9.506;2023-01-19T21:46:34;100405.75;;;1.61;100.00
29315;BME280;16320;53.954;9.506;2023-01-19T21:50:20;100419.53;;;1.61;100.00
29315;BME280;16320;53.954;9.506;2023-01-19T21:54:08;100419.53;;;1.61;100.00
29315;BME280;16320;53.954;9.506;2023-01-19T21:58:13;100421.31;;;1.59;100.00
29315;BME280;16320;53.954;9.506;2023-01-19T22:02:13;100435.13;;;1.58;100.00
29315;BME280;16320;53.954;9.506;2023-01-19T22:06:26;100440.25;;;1.61;100.00
29315;BME280;16320;53.954;9.506;2023-01-19T22:32:12;100477.19;;;1.21;100.00
29315;BME280;16320;53.954;9.506;2023-01-19T22:35:27;100484.97;;;1.20;100.00
29315;BME280;16320;53.954;9.506;2023-01-19T22:39:22;100485.84;;;1.20;100.00
29315;BME280;16320;53.954;9.506;2023-01-19T22:53:52;100505.69;;;1.20;100.00
29315;BME280;16320;53.954;9.506;2023-01-19T23:30:38;100551.63;;;1.04;100.00
29315;BME280;16320;53.954;9.506;2023-01-19T23:33:51;100555.06;;;1.06;100.00
29315;BME280;16320;53.954;9.506;2023-01-19T23:37:35;100563.72;;;1.02;100.00
29315;BME280;16320;53.954;9.506;2023-01-19T23:40:41;100568.88;;;1.05;100.00
29315;BME280;16320;53.954;9.506;2023-01-19T23:44:01;100575.75;;;1.06;100.00
29315;BME280;16320;53.954;9.506;2023-01-19T23:47:09;100572.28;;;1.07;100.00
29315;BME280;16320;53.954;9.506;2023-01-19T23:50:16;100579.97;;;1.12;100.00
